Terminal Aerodrome Forecast
Issued by NWS

Home | Current Version | Previous Version | Text Only | Print | Product List | Glossary On
Versions: 1 2 3 4 5 6 7 8 9 10 11 12 13 14 15 16
000
FTUS42 KMLB 211120
TAFLEE
TAF
KLEE 211120Z 2112/2212 21003KT P6SM BKN150 OVC250
     FM211400 32005KT P6SM SCT015 BKN150
     FM211800 36005KT P6SM SCT040 BKN150
     FM220000 02005KT P6SM SCT050 BKN150
     FM220600 08003KT P6SM FEW040 BKN120=

USA.gov is the U.S. government's official web portal to all federal, state and local government web resources and services.